Time;durP1;ratioP1;P1;durP2;ratioP2;P2;SDS_P1;SDS_P2;PMS_P1;PMS_P2;Temp;Humidity;BMP_temperature;BMP_pressure;BME280_temperature;BME280_humidity;BME280_pressure;Samples;Min_cycle;Max_cycle;Signal;HPM_P1;HPM_P2
2022/01/12 00:34:52;;;;;;;10.00;6.35;;;2.40;99.90;;;;;;4986949;28;20590;-87
2022/01/12 00:37:20;;;;;;;10.02;5.82;;;2.50;99.90;;;;;;4986966;28;20202;-88
2022/01/12 00:39:50;;;;;;;8.38;5.70;;;2.40;99.90;;;;;;4985948;28;20233;-87
2022/01/12 00:42:21;;;;;;;9.27;5.57;;;2.20;99.90;;;;;;4991164;28;20544;-87
2022/01/12 00:44:48;;;;;;;9.77;5.60;;;2.40;99.90;;;;;;4994590;28;20237;-88
2022/01/12 00:47:15;;;;;;;13.32;6.82;;;2.40;99.90;;;;;;4991179;28;20219;-88
2022/01/12 00:49:42;;;;;;;7.72;5.10;;;2.40;99.90;;;;;;4988998;28;20324;-87
2022/01/12 00:52:09;;;;;;;8.82;5.80;;;2.40;99.90;;;;;;4989554;28;20212;-88
2022/01/12 00:54:36;;;;;;;9.07;5.50;;;2.40;99.90;;;;;;4987733;28;20644;-89
2022/01/12 00:57:06;;;;;;;9.32;6.05;;;2.10;99.90;;;;;;4989574;28;20285;-89
2022/01/12 00:59:33;;;;;;;9.52;6.07;;;2.20;99.90;;;;;;4993493;28;20233;-87
2022/01/12 01:02:00;;;;;;;9.65;6.15;;;2.40;99.90;;;;;;4985059;28;20217;-87
2022/01/12 01:04:27;;;;;;;10.02;5.90;;;2.30;99.90;;;;;;4989567;28;20213;-87
2022/01/12 01:06:57;;;;;;;9.75;5.60;;;2.10;99.90;;;;;;4988847;28;20732;-89
2022/01/12 01:09:24;;;;;;;11.25;5.90;;;1.90;99.90;;;;;;4989195;28;20228;-89
2022/01/12 01:11:51;;;;;;;9.90;5.82;;;2.20;99.90;;;;;;4994191;28;20209;-87
2022/01/12 01:14:37;;;;;;;9.43;6.00;;;2.30;99.90;;;;;;4998437;28;20212;-87
2022/01/12 01:25:27;;;;;;;7.72;5.07;;;2.30;99.90;;;;;;4997667;28;20232;-87
2022/01/12 01:25:36;;;;;;;9.05;5.30;;;1.90;99.90;;;;;;4983489;28;20188;-87
2022/01/12 01:28:04;;;;;;;8.10;5.63;;;1.70;99.90;;;;;;4984223;28;20244;-88
2022/01/12 01:30:35;;;;;;;9.50;5.30;;;2.00;99.90;;;;;;4989141;28;20225;-88
2022/01/12 01:33:08;;;;;;;8.68;5.68;;;1.70;99.90;;;;;;4993701;28;20205;-88
2022/01/12 01:35:38;;;;;;;9.90;5.88;;;1.80;99.90;;;;;;4991647;28;20214;-89
2022/01/12 01:38:06;;;;;;;10.52;5.80;;;1.80;99.90;;;;;;4988070;28;20701;-89
2022/01/12 01:40:37;;;;;;;10.25;5.72;;;2.10;99.90;;;;;;4988945;28;20287;-89
2022/01/12 01:43:17;;;;;;;7.85;5.10;;;2.10;99.90;;;;;;5000756;28;20213;-88
2022/01/12 01:54:07;;;;;;;9.35;5.90;;;1.90;99.90;;;;;;4990622;28;20192;-88
2022/01/12 01:56:34;;;;;;;10.27;5.97;;;1.90;99.90;;;;;;4987431;28;20654;-88
2022/01/12 01:59:02;;;;;;;9.48;5.88;;;1.90;99.90;;;;;;4986144;28;20233;-87
2022/01/12 02:01:31;;;;;;;9.07;6.28;;;1.90;99.90;;;;;;4985979;28;20204;-88
2022/01/12 02:04:01;;;;;;;8.75;5.32;;;1.90;99.90;;;;;;4986065;28;20219;-88
2022/01/12 02:06:29;;;;;;;10.75;6.30;;;1.90;99.90;;;;;;4991853;28;20243;-89
2022/01/12 02:08:57;;;;;;;9.95;5.40;;;1.50;99.90;;;;;;4991624;28;20229;-89
2022/01/12 02:11:27;;;;;;;11.43;6.60;;;1.80;99.90;;;;;;4989180;28;20232;-86
2022/01/12 02:13:55;;;;;;;9.77;5.95;;;1.50;99.90;;;;;;4986410;28;20275;-88
2022/01/12 02:16:31;;;;;;;9.70;5.90;;;1.40;99.90;;;;;;4983544;28;20271;-87
2022/01/12 02:19:16;;;;;;;9.00;5.70;;;1.70;99.90;;;;;;4982446;28;20272;-88
2022/01/12 02:35:55;;;;;;;9.00;5.22;;;1.60;99.90;;;;;;4973643;28;20631;-88
2022/01/12 02:41:08;;;;;;;10.50;5.97;;;1.30;99.90;;;;;;4984654;28;20256;-87
2022/01/12 02:50:36;;;;;;;10.32;5.90;;;1.60;99.90;;;;;;4980946;28;20212;-88
2022/01/12 02:54:53;;;;;;;9.50;6.40;;;1.80;99.90;;;;;;4981696;28;20192;-88
2022/01/12 02:57:21;;;;;;;9.30;6.38;;;1.70;99.90;;;;;;4981483;28;20205;-87
2022/01/12 03:00:03;;;;;;;8.88;6.10;;;1.70;99.90;;;;;;4990387;28;20227;-86
2022/01/12 03:02:33;;;;;;;8.85;6.03;;;1.50;99.90;;;;;;4987560;28;20205;-87
2022/01/12 03:05:19;;;;;;;9.93;5.63;;;1.40;99.90;;;;;;4994878;28;20205;-86
2022/01/12 03:07:46;;;;;;;12.43;6.68;;;1.50;99.90;;;;;;4994330;28;20235;-87
2022/01/12 03:10:21;;;;;;;10.93;6.10;;;1.50;99.90;;;;;;4985979;28;20227;-87
2022/01/12 03:12:48;;;;;;;11.30;6.82;;;1.40;99.90;;;;;;4987311;28;20208;-87
2022/01/12 03:15:19;;;;;;;10.02;6.50;;;1.40;99.90;;;;;;4963579;28;20215;-87
2022/01/12 03:17:46;;;;;;;9.00;6.07;;;1.40;99.90;;;;;;4979069;28;20235;-87
2022/01/12 03:20:17;;;;;;;10.10;6.45;;;0.90;99.90;;;;;;4979637;28;20215;-87
2022/01/12 03:22:50;;;;;;;9.73;6.10;;;1.00;99.90;;;;;;4980985;28;20212;-87
2022/01/12 03:25:18;;;;;;;9.07;6.10;;;1.30;99.90;;;;;;4981841;28;20201;-87
2022/01/12 03:27:46;;;;;;;10.18;5.60;;;1.00;99.90;;;;;;4979648;28;20233;-87
2022/01/12 03:30:13;;;;;;;8.98;5.85;;;1.30;99.90;;;;;;4981965;28;20231;-86
2022/01/12 03:32:45;;;;;;;10.32;6.05;;;1.40;99.90;;;;;;4985540;28;20235;-87
2022/01/12 03:35:24;;;;;;;10.90;6.72;;;1.40;99.90;;;;;;4988398;28;20205;-86
2022/01/12 03:38:19;;;;;;;9.10;5.25;;;1.60;99.90;;;;;;4994281;28;20689;-87
2022/01/12 03:40:44;;;;;;;9.48;5.30;;;1.50;99.90;;;;;;4991816;28;20219;-87
2022/01/12 03:43:11;;;;;;;9.68;5.35;;;0.90;99.90;;;;;;4991030;28;20213;-86
2022/01/12 03:45:38;;;;;;;11.07;5.63;;;1.40;99.90;;;;;;4997267;28;20686;-87
2022/01/12 03:48:06;;;;;;;9.00;5.78;;;1.10;99.90;;;;;;4993584;28;20320;-87
2022/01/12 03:50:33;;;;;;;9.63;6.07;;;1.40;99.90;;;;;;4993374;28;20220;-87
2022/01/12 03:53:00;;;;;;;10.70;6.47;;;1.30;99.90;;;;;;4991687;28;20666;-86
2022/01/12 03:55:28;;;;;;;10.68;6.47;;;1.30;99.90;;;;;;4981803;28;20219;-85
2022/01/12 03:57:57;;;;;;;9.77;6.25;;;1.40;99.90;;;;;;4980535;28;20240;-87
2022/01/12 04:00:25;;;;;;;13.10;6.72;;;1.30;99.90;;;;;;4978116;28;20211;-88
2022/01/12 04:02:52;;;;;;;9.15;6.07;;;1.30;99.90;;;;;;4977644;28;20268;-87
2022/01/12 04:05:30;;;;;;;10.35;6.53;;;1.30;99.90;;;;;;4982528;28;20205;-88
2022/01/12 04:10:41;;;;;;;12.77;6.85;;;0.90;99.90;;;;;;4989810;28;20287;-86
2022/01/12 04:13:14;;;;;;;11.55;7.40;;;1.30;99.90;;;;;;4994662;28;20268;-87
2022/01/12 04:15:42;;;;;;;11.27;6.85;;;0.90;99.90;;;;;;4982840;28;20223;-87
2022/01/12 04:18:09;;;;;;;12.02;7.40;;;1.20;99.90;;;;;;4988731;28;20240;-87
2022/01/12 04:20:43;;;;;;;11.63;6.45;;;1.20;99.90;;;;;;4993195;28;20201;-87
2022/01/12 04:23:19;;;;;;;10.10;6.57;;;1.20;99.90;;;;;;4991167;28;20210;-87
2022/01/12 04:25:47;;;;;;;11.45;7.43;;;1.40;99.90;;;;;;4988447;28;20200;-86
2022/01/12 04:28:18;;;;;;;11.35;7.78;;;1.30;99.90;;;;;;4980049;28;20323;-86
2022/01/12 04:30:47;;;;;;;13.68;7.85;;;1.20;99.90;;;;;;4978569;28;20235;-87
2022/01/12 04:33:14;;;;;;;13.10;7.55;;;0.80;99.90;;;;;;4979867;28;20259;-87
2022/01/12 04:35:47;;;;;;;11.32;6.93;;;0.80;99.90;;;;;;4982474;28;20263;-88
2022/01/12 04:38:15;;;;;;;12.80;7.50;;;0.80;99.90;;;;;;4980650;28;20237;-88
2022/01/12 04:40:45;;;;;;;10.90;7.25;;;0.90;99.90;;;;;;4980546;28;20209;-87
2022/01/12 04:43:13;;;;;;;11.32;7.18;;;1.20;99.90;;;;;;4981514;28;20260;-86
2022/01/12 04:46:08;;;;;;;10.57;7.63;;;1.30;99.90;;;;;;4980831;28;20219;-88
2022/01/12 04:48:50;;;;;;;12.75;7.55;;;1.20;99.90;;;;;;4988953;28;20216;-86
2022/01/12 04:51:17;;;;;;;12.68;7.55;;;1.10;99.90;;;;;;4978405;28;20216;-87
2022/01/12 04:53:44;;;;;;;13.30;7.40;;;0.80;99.90;;;;;;4978156;28;20300;-88
2022/01/12 04:56:12;;;;;;;11.10;7.68;;;0.50;99.90;;;;;;4978538;28;20185;-86
2022/01/12 04:58:39;;;;;;;11.60;7.75;;;0.70;99.90;;;;;;4978793;28;20244;-89
2022/01/12 05:01:11;;;;;;;11.35;6.90;;;1.20;99.90;;;;;;4989607;28;20275;-88
2022/01/12 05:06:46;;;;;;;11.23;7.65;;;1.00;99.90;;;;;;4979278;28;20205;-87
2022/01/12 05:09:47;;;;;;;11.13;8.10;;;1.00;99.90;;;;;;4980947;28;20314;-88
2022/01/12 05:15:18;;;;;;;12.98;6.50;;;1.10;99.90;;;;;;4984250;28;20187;-88
2022/01/12 05:17:51;;;;;;;15.07;7.68;;;1.00;99.90;;;;;;4980163;28;20236;-87
2022/01/12 05:20:18;;;;;;;12.95;8.40;;;1.00;99.90;;;;;;4978431;28;20247;-87
2022/01/12 05:22:46;;;;;;;14.05;7.70;;;1.00;99.90;;;;;;4978703;28;20209;-87
2022/01/12 05:25:17;;;;;;;12.57;8.18;;;1.00;99.90;;;;;;4979200;28;20237;-87
2022/01/12 05:27:49;;;;;;;17.35;7.60;;;1.00;99.90;;;;;;4983147;28;21561;-88
2022/01/12 05:30:18;;;;;;;12.10;8.35;;;1.00;99.90;;;;;;4989719;28;20294;-88
2022/01/12 05:32:47;;;;;;;14.77;8.73;;;0.80;99.90;;;;;;4984743;28;20295;-89
2022/01/12 05:35:24;;;;;;;14.10;8.10;;;0.90;99.90;;;;;;4984920;28;20228;-89
2022/01/12 05:37:55;;;;;;;14.52;8.95;;;0.90;99.90;;;;;;4986872;28;20246;-88
2022/01/12 05:40:26;;;;;;;12.15;8.20;;;1.00;99.90;;;;;;4985116;28;20208;-89
2022/01/12 05:42:59;;;;;;;12.45;8.82;;;0.90;99.90;;;;;;4984397;28;20324;-88
2022/01/12 05:45:26;;;;;;;12.00;7.57;;;1.00;99.90;;;;;;4984514;28;20236;-88
2022/01/12 05:50:52;;;;;;;11.88;7.35;;;1.00;99.90;;;;;;4998997;28;20232;-87
2022/01/12 05:53:22;;;;;;;10.52;7.93;;;0.90;99.90;;;;;;4997429;28;20211;-89
2022/01/12 05:55:56;;;;;;;14.80;8.50;;;0.40;99.90;;;;;;4997091;28;20209;-87
2022/01/12 05:58:27;;;;;;;12.95;8.00;;;0.90;99.90;;;;;;4994910;28;20232;-89
2022/01/12 06:00:55;;;;;;;13.38;8.30;;;0.80;99.90;;;;;;4992659;28;20228;-89
2022/01/12 06:03:31;;;;;;;14.00;9.07;;;0.80;99.90;;;;;;4995267;28;20208;-90
2022/01/12 06:06:08;;;;;;;13.35;8.32;;;0.40;99.90;;;;;;4998267;28;20221;-86
2022/01/12 06:08:42;;;;;;;14.20;9.55;;;0.90;99.90;;;;;;4991976;28;20228;-88
2022/01/12 06:11:09;;;;;;;13.93;9.85;;;0.30;99.90;;;;;;4990604;28;20212;-88
2022/01/12 06:13:40;;;;;;;13.77;9.02;;;0.70;99.90;;;;;;4985966;28;20219;-88
2022/01/12 06:16:07;;;;;;;13.68;9.00;;;0.30;99.90;;;;;;4985965;28;20219;-89
2022/01/12 06:18:39;;;;;;;18.33;10.45;;;0.60;99.90;;;;;;4988882;28;20752;-89
2022/01/12 06:21:07;;;;;;;14.20;9.52;;;0.60;99.90;;;;;;4995256;28;20268;-87
2022/01/12 06:23:34;;;;;;;15.32;10.00;;;0.40;99.90;;;;;;4988479;28;20236;-88
2022/01/12 06:26:01;;;;;;;15.90;9.85;;;0.40;99.90;;;;;;4984287;28;20242;-87
2022/01/12 06:28:52;;;;;;;17.25;10.25;;;0.40;99.90;;;;;;4988581;28;20284;-87
2022/01/12 06:31:26;;;;;;;14.60;10.65;;;0.70;99.90;;;;;;4993206;28;20240;-87
2022/01/12 06:33:55;;;;;;;14.70;9.70;;;0.20;99.90;;;;;;5014443;23;20319;-89
2022/01/12 06:36:23;;;;;;;16.10;10.63;;;0.90;99.90;;;;;;4993982;28;20215;-89
2022/01/12 06:38:50;;;;;;;15.02;9.18;;;0.90;99.90;;;;;;4995634;28;20196;-90
2022/01/12 06:41:18;;;;;;;15.32;10.25;;;0.60;99.90;;;;;;4991536;28;20246;-90
2022/01/12 06:43:45;;;;;;;15.15;10.55;;;0.60;99.90;;;;;;4987368;28;20232;-89
2022/01/12 06:46:14;;;;;;;15.85;10.43;;;0.40;99.90;;;;;;4984892;28;20227;-90
2022/01/12 06:48:41;;;;;;;15.52;10.02;;;0.90;99.90;;;;;;4986204;28;20662;-90
2022/01/12 06:51:11;;;;;;;17.70;10.60;;;0.80;99.90;;;;;;4990261;28;20242;-88
2022/01/12 06:53:38;;;;;;;18.13;11.23;;;0.90;99.90;;;;;;4997204;28;20242;-89
2022/01/12 06:56:08;;;;;;;16.65;11.68;;;0.90;99.90;;;;;;4989134;28;20204;-89
2022/01/12 06:58:35;;;;;;;16.40;10.68;;;0.80;99.90;;;;;;4992301;28;20212;-91
2022/01/12 07:01:02;;;;;;;17.45;11.82;;;0.90;99.90;;;;;;4999491;28;20224;-91
2022/01/12 07:03:29;;;;;;;15.55;10.15;;;1.00;99.90;;;;;;4999082;28;20252;-88
2022/01/12 07:05:56;;;;;;;15.95;10.80;;;0.90;99.90;;;;;;4999395;28;20212;-88
2022/01/12 07:08:25;;;;;;;16.42;10.35;;;0.90;99.90;;;;;;4995053;28;20207;-89
2022/01/12 07:10:52;;;;;;;18.35;11.80;;;0.40;99.90;;;;;;4994301;28;20285;-89
2022/01/12 07:13:19;;;;;;;18.58;11.38;;;0.30;99.90;;;;;;4997190;28;20235;-89
2022/01/12 07:15:46;;;;;;;15.80;11.45;;;0.80;99.90;;;;;;4999153;28;20192;-90
2022/01/12 07:18:14;;;;;;;20.67;12.23;;;0.90;99.90;;;;;;4995886;28;20208;-88
2022/01/12 07:20:41;;;;;;;20.00;12.05;;;1.00;99.90;;;;;;4988433;28;20231;-88
2022/01/12 07:23:09;;;;;;;20.42;12.07;;;1.00;99.90;;;;;;4986575;28;20275;-90
2022/01/12 07:25:37;;;;;;;18.25;11.90;;;1.00;99.90;;;;;;4985428;28;20200;-89
2022/01/12 07:28:07;;;;;;;19.38;12.18;;;1.00;99.90;;;;;;4988430;28;20201;-89
2022/01/12 07:30:36;;;;;;;23.27;14.40;;;0.80;99.90;;;;;;4987189;28;20205;-89
2022/01/12 07:33:03;;;;;;;23.10;14.20;;;0.80;99.90;;;;;;4986685;28;20228;-89
2022/01/12 07:35:30;;;;;;;19.08;13.20;;;1.00;99.90;;;;;;4985972;28;20244;-89
2022/01/12 07:37:57;;;;;;;20.92;13.90;;;0.90;99.90;;;;;;4983847;28;20235;-89
2022/01/12 07:40:24;;;;;;;21.75;13.25;;;1.00;99.90;;;;;;4996322;28;20214;-89
2022/01/12 07:42:53;;;;;;;19.88;13.30;;;1.10;99.90;;;;;;4986236;28;20658;-89
2022/01/12 07:45:20;;;;;;;19.73;13.25;;;1.20;99.90;;;;;;4984336;28;20252;-89
2022/01/12 07:47:47;;;;;;;20.15;12.52;;;0.60;99.90;;;;;;4983863;28;20290;-89
2022/01/12 07:50:14;;;;;;;20.90;13.10;;;0.60;99.90;;;;;;4983481;28;20232;-89
2022/01/12 07:52:41;;;;;;;24.38;15.88;;;0.80;99.90;;;;;;4983646;28;20232;-88
2022/01/12 07:55:09;;;;;;;22.13;13.85;;;0.90;99.90;;;;;;4984036;28;20263;-88
2022/01/12 07:57:36;;;;;;;27.35;15.13;;;1.20;99.90;;;;;;4984760;28;20204;-89
2022/01/12 08:00:05;;;;;;;21.52;14.07;;;1.00;99.90;;;;;;4987120;28;20240;-90
2022/01/12 08:02:32;;;;;;;22.10;13.02;;;1.40;99.90;;;;;;4984311;28;20261;-89
2022/01/12 08:04:59;;;;;;;24.63;12.02;;;1.10;99.90;;;;;;4983626;28;20248;-89
2022/01/12 08:07:26;;;;;;;18.20;12.45;;;1.40;99.90;;;;;;4986510;28;20213;-89
2022/01/12 08:09:54;;;;;;;19.48;11.00;;;1.40;99.90;;;;;;4991897;28;20731;-89
2022/01/12 08:12:22;;;;;;;19.20;13.60;;;1.50;99.90;;;;;;4988553;28;20233;-89
2022/01/12 08:14:48;;;;;;;21.60;12.98;;;1.00;99.90;;;;;;4988810;28;20200;-88
2022/01/12 08:17:20;;;;;;;22.23;13.15;;;1.20;99.90;;;;;;4991610;28;20201;-89
2022/01/12 08:19:47;;;;;;;21.88;13.40;;;1.30;99.90;;;;;;4983933;28;20196;-88
2022/01/12 08:22:14;;;;;;;22.98;14.00;;;1.40;99.90;;;;;;4987537;28;20232;-87
2022/01/12 08:24:41;;;;;;;23.83;14.40;;;1.30;99.90;;;;;;4995733;28;20243;-87
2022/01/12 08:27:09;;;;;;;19.70;14.05;;;1.30;99.90;;;;;;4987626;28;20639;-89
2022/01/12 08:29:38;;;;;;;21.30;13.45;;;1.60;99.90;;;;;;4985680;28;20212;-89
2022/01/12 08:32:06;;;;;;;20.17;13.68;;;1.60;99.90;;;;;;4986990;28;20215;-89
2022/01/12 08:34:35;;;;;;;21.65;14.25;;;1.70;99.90;;;;;;4985779;28;20193;-90
2022/01/12 08:37:02;;;;;;;22.30;14.70;;;1.50;99.90;;;;;;4985208;28;20208;-90
2022/01/12 08:39:33;;;;;;;17.80;12.75;;;1.10;99.90;;;;;;4992487;28;20243;-90
2022/01/12 08:42:05;;;;;;;24.60;14.32;;;1.90;99.90;;;;;;4996627;28;20227;-89
2022/01/12 08:44:33;;;;;;;21.15;13.65;;;1.70;99.90;;;;;;4998495;28;20208;-87
2022/01/12 08:47:00;;;;;;;21.13;13.90;;;1.60;99.90;;;;;;4997633;28;20204;-88
2022/01/12 08:49:27;;;;;;;22.20;13.60;;;1.60;99.90;;;;;;4994462;28;20200;-88
2022/01/12 08:51:56;;;;;;;18.90;14.07;;;1.90;99.90;;;;;;4998369;28;20296;-87
2022/01/12 08:54:23;;;;;;;22.95;12.55;;;1.80;99.90;;;;;;4990957;28;20646;-89
2022/01/12 08:56:51;;;;;;;23.35;14.48;;;1.60;99.90;;;;;;4987611;28;20232;-90
2022/01/12 08:59:22;;;;;;;19.65;13.00;;;1.60;99.90;;;;;;4990841;28;20205;-91
2022/01/12 09:01:50;;;;;;;19.20;13.20;;;1.80;99.90;;;;;;4986662;28;20204;-89
2022/01/12 09:04:17;;;;;;;22.25;15.50;;;1.60;99.90;;;;;;4985447;28;20272;-89
2022/01/12 09:06:43;;;;;;;21.92;13.90;;;1.30;99.90;;;;;;4988506;28;20212;-89
2022/01/12 09:09:12;;;;;;;21.15;14.18;;;1.30;99.90;;;;;;4987106;28;20213;-89
2022/01/12 09:11:39;;;;;;;22.52;14.82;;;1.80;99.90;;;;;;4988503;28;20315;-89
2022/01/12 09:14:06;;;;;;;25.70;13.73;;;1.70;99.90;;;;;;4999362;28;20229;-89
2022/01/12 09:16:36;;;;;;;20.92;13.70;;;1.60;99.90;;;;;;4987754;28;20218;-90
2022/01/12 09:19:06;;;;;;;19.35;13.60;;;1.60;99.90;;;;;;4989240;28;20266;-89
2022/01/12 09:21:35;;;;;;;20.10;14.05;;;1.80;99.90;;;;;;4988619;28;20227;-89
2022/01/12 09:24:02;;;;;;;20.92;13.60;;;1.20;99.90;;;;;;4989259;28;20289;-88
2022/01/12 09:26:30;;;;;;;21.70;14.25;;;1.80;99.90;;;;;;4989738;28;20213;-88
2022/01/12 09:28:58;;;;;;;18.70;13.15;;;1.90;99.90;;;;;;4993284;28;20212;-89
2022/01/12 09:31:25;;;;;;;19.33;13.65;;;1.60;99.90;;;;;;4991543;28;20260;-88
2022/01/12 09:33:52;;;;;;;21.05;13.07;;;1.90;99.90;;;;;;4988051;28;20247;-88
2022/01/12 09:36:18;;;;;;;20.23;13.68;;;2.00;99.90;;;;;;4997928;28;20201;-87
2022/01/12 09:38:45;;;;;;;20.50;14.20;;;1.80;99.90;;;;;;4986166;28;20316;-90
2022/01/12 09:41:12;;;;;;;21.50;13.30;;;2.00;99.90;;;;;;4986488;28;20244;-88
2022/01/12 09:43:42;;;;;;;22.23;15.15;;;2.10;99.90;;;;;;4986630;28;20252;-88
2022/01/12 09:46:10;;;;;;;16.65;11.60;;;2.10;99.90;;;;;;4986841;28;20264;-89
2022/01/12 09:48:37;;;;;;;15.65;11.00;;;2.40;99.90;;;;;;4988307;28;20204;-89
2022/01/12 09:51:07;;;;;;;17.45;11.15;;;2.30;99.90;;;;;;4986478;28;20291;-89
2022/01/12 09:53:36;;;;;;;15.85;10.65;;;2.50;99.90;;;;;;4985398;28;20239;-88
2022/01/12 09:56:17;;;;;;;17.38;11.13;;;2.20;99.90;;;;;;4987083;28;20246;-89
2022/01/12 09:58:45;;;;;;;15.57;10.60;;;2.50;99.90;;;;;;4987179;28;20193;-89
2022/01/12 10:01:12;;;;;;;17.20;11.55;;;2.50;99.90;;;;;;4987830;28;20229;-89
2022/01/12 10:03:39;;;;;;;19.13;11.65;;;2.80;99.90;;;;;;4994948;28;20225;-89
2022/01/12 10:06:14;;;;;;;16.45;11.50;;;2.80;99.90;;;;;;4993488;28;20266;-88
2022/01/12 10:08:41;;;;;;;15.80;11.30;;;2.80;99.90;;;;;;4985831;28;20208;-88
2022/01/12 10:11:09;;;;;;;16.95;11.02;;;2.70;99.90;;;;;;4995904;28;20239;-88
2022/01/12 10:13:37;;;;;;;16.95;12.68;;;2.90;99.90;;;;;;4987481;28;20229;-89
2022/01/12 10:16:14;;;;;;;18.80;11.45;;;2.90;99.90;;;;;;4985641;28;20216;-88
2022/01/12 10:18:46;;;;;;;14.77;11.63;;;3.10;99.90;;;;;;4987042;28;20196;-87
2022/01/12 10:21:24;;;;;;;20.25;12.30;;;3.10;99.90;;;;;;4987185;28;20701;-88
2022/01/12 10:23:56;;;;;;;14.20;10.40;;;3.00;99.90;;;;;;4988884;28;20233;-88
2022/01/12 10:26:33;;;;;;;18.23;10.98;;;2.60;99.90;;;;;;4986637;28;20225;-88
2022/01/12 10:29:05;;;;;;;17.83;11.02;;;3.00;99.90;;;;;;4987577;28;20245;-88
2022/01/12 10:31:49;;;;;;;16.55;10.10;;;2.80;99.90;;;;;;4986815;28;20248;-88
2022/01/12 10:34:17;;;;;;;16.08;10.73;;;3.20;99.90;;;;;;4984003;28;20212;-89
2022/01/12 10:36:46;;;;;;;17.77;10.98;;;3.50;99.90;;;;;;4987698;28;20256;-88
2022/01/12 10:39:14;;;;;;;14.88;9.73;;;3.20;99.90;;;;;;4989108;28;20229;-87
2022/01/12 10:41:55;;;;;;;17.00;11.05;;;3.50;99.90;;;;;;4999421;28;20640;-88
2022/01/12 10:44:23;;;;;;;16.90;12.25;;;3.50;99.90;;;;;;4985961;28;20279;-89
2022/01/12 10:47:12;;;;;;;15.80;10.40;;;3.20;99.90;;;;;;4985349;28;20185;-89
2022/01/12 10:49:41;;;;;;;16.67;12.05;;;3.10;99.90;;;;;;4985499;28;20233;-88
2022/01/12 10:52:11;;;;;;;19.65;11.75;;;3.10;99.90;;;;;;4986982;28;20236;-87
2022/01/12 10:54:49;;;;;;;17.17;11.60;;;2.90;99.90;;;;;;4992682;28;20213;-88
2022/01/12 10:57:17;;;;;;;17.27;11.15;;;3.00;99.90;;;;;;4988578;28;20252;-87
2022/01/12 10:59:48;;;;;;;18.35;11.43;;;3.10;99.90;;;;;;4993450;28;20244;-88
2022/01/12 11:02:16;;;;;;;16.67;11.98;;;2.90;99.90;;;;;;4987192;28;20225;-89
2022/01/12 11:04:43;;;;;;;26.48;13.85;;;3.00;99.90;;;;;;4985688;28;20312;-89
2022/01/12 11:07:11;;;;;;;22.20;13.05;;;3.00;99.90;;;;;;4986236;28;20292;-88
2022/01/12 11:09:39;;;;;;;21.10;13.70;;;2.90;99.90;;;;;;4985255;28;20249;-89
2022/01/12 11:12:08;;;;;;;17.85;12.50;;;2.80;99.90;;;;;;4993371;28;20217;-88
2022/01/12 11:14:35;;;;;;;19.70;13.07;;;3.30;99.90;;;;;;4982923;28;20240;-88
2022/01/12 11:17:02;;;;;;;17.20;12.35;;;3.20;99.90;;;;;;4987420;28;20213;-89
2022/01/12 11:19:32;;;;;;;19.30;13.00;;;3.20;99.90;;;;;;4988336;28;20268;-89
2022/01/12 11:22:09;;;;;;;19.70;13.30;;;3.20;99.90;;;;;;4986588;28;20585;-88
2022/01/12 11:24:36;;;;;;;19.17;12.27;;;3.10;99.90;;;;;;4986577;28;20193;-89
2022/01/12 11:27:05;;;;;;;20.20;13.02;;;3.20;99.90;;;;;;4989165;28;20225;-88
2022/01/12 11:29:34;;;;;;;16.98;11.82;;;3.10;99.90;;;;;;4986245;28;20300;-89
2022/01/12 11:32:06;;;;;;;17.48;11.90;;;3.40;99.90;;;;;;4985687;28;20197;-88
2022/01/12 11:34:35;;;;;;;19.88;12.50;;;3.50;99.90;;;;;;4988578;28;20229;-88
2022/01/12 11:37:12;;;;;;;16.83;12.55;;;2.90;99.90;;;;;;4994592;28;20240;-88
2022/01/12 11:39:39;;;;;;;20.00;12.85;;;3.30;99.90;;;;;;4987217;28;20228;-88
2022/01/12 11:42:07;;;;;;;18.40;12.35;;;3.10;99.90;;;;;;4986282;28;20267;-88
2022/01/12 11:44:38;;;;;;;22.17;12.73;;;3.70;99.90;;;;;;4986780;28;20211;-89
2022/01/12 11:47:11;;;;;;;20.30;13.10;;;3.20;99.90;;;;;;4989811;28;20198;-89
2022/01/12 11:49:44;;;;;;;18.80;10.65;;;3.30;99.90;;;;;;4998887;28;20221;-87
2022/01/12 11:52:16;;;;;;;17.83;11.32;;;3.30;99.90;;;;;;4998415;28;20299;-88
2022/01/12 11:54:47;;;;;;;16.60;10.75;;;3.60;99.90;;;;;;4990184;28;20213;-88
2022/01/12 11:57:18;;;;;;;20.10;12.52;;;3.60;99.90;;;;;;4998363;28;20207;-87
2022/01/12 11:59:53;;;;;;;18.40;12.55;;;3.50;99.90;;;;;;4996028;28;20223;-88
2022/01/12 12:02:31;;;;;;;16.85;10.95;;;3.70;99.90;;;;;;4985614;28;20256;-89
2022/01/12 12:05:01;;;;;;;16.23;9.63;;;3.80;99.90;;;;;;4993752;28;20256;-88
2022/01/12 12:07:28;;;;;;;16.30;11.25;;;3.90;99.90;;;;;;4990359;28;20233;-88
2022/01/12 12:09:59;;;;;;;18.60;11.73;;;3.80;99.90;;;;;;4985792;28;20309;-87
2022/01/12 12:12:30;;;;;;;16.60;11.85;;;3.60;99.90;;;;;;4983939;28;20296;-88
2022/01/12 12:15:02;;;;;;;15.80;9.70;;;3.50;99.90;;;;;;4984397;28;20197;-87
2022/01/12 12:17:30;;;;;;;17.38;10.95;;;3.50;99.90;;;;;;4984499;28;20237;-87
2022/01/12 12:20:00;;;;;;;13.25;9.05;;;3.60;99.90;;;;;;4984285;28;20259;-87
2022/01/12 12:25:08;;;;;;;12.65;8.90;;;3.90;99.90;;;;;;4133519;26;20638;-88
2022/01/12 12:27:38;;;;;;;17.30;10.05;;;3.80;99.90;;;;;;4988333;28;20190;-90
2022/01/12 12:30:40;;;;;;;15.10;9.05;;;3.70;99.90;;;;;;4997676;28;20177;-89
2022/01/12 12:33:18;;;;;;;15.65;8.82;;;3.50;99.90;;;;;;5019827;23;20254;-88
2022/01/12 12:36:22;;;;;;;;;;;;;;;;;;;;;
2022/01/12 12:39:08;;;;;;;15.15;9.88;;;3.70;99.90;;;;;;5002891;28;20222;-87
2022/01/12 12:45:35;;;;;;;17.17;11.30;;;3.80;99.90;;;;;;5005542;23;20257;-87
2022/01/12 12:51:24;;;;;;;17.67;10.63;;;3.70;99.90;;;;;;4927689;28;20219;-86
2022/01/12 12:54:00;;;;;;;14.57;10.57;;;3.30;99.90;;;;;;4987264;28;20245;-89
2022/01/12 13:06:31;;;;;;;20.50;11.90;;;4.10;99.90;;;;;;4878038;29;20208;-86
2022/01/12 13:12:26;;;;;;;19.27;12.18;;;3.90;99.90;;;;;;4965121;29;20370;-88
2022/01/12 13:32:28;;;;;;;15.07;8.32;;;4.40;99.90;;;;;;4861622;29;20218;-89
2022/01/12 13:35:03;;;;;;;15.57;10.82;;;4.20;99.90;;;;;;5017860;23;20251;-86
2022/01/12 13:44:43;;;;;;;;;;;;;;;;;;;;;
2022/01/12 14:00:38;;;;;;;15.55;10.70;;;3.90;99.90;;;;;;4983088;28;20201;-85
2022/01/12 14:13:26;;;;;;;16.70;10.68;;;3.90;99.90;;;;;;4983572;28;20256;-87
2022/01/12 14:16:09;;;;;;;16.50;10.25;;;4.00;99.90;;;;;;4987547;28;20210;-88
2022/01/12 14:18:58;;;;;;;16.90;11.98;;;3.80;99.90;;;;;;4987211;28;20209;-85
2022/01/12 14:21:27;;;;;;;19.27;6.97;;;4.10;99.90;;;;;;4998833;28;20270;-85
2022/01/12 14:27:52;;;;;;;19.25;12.15;;;4.00;99.90;;;;;;4886527;29;20201;-86
2022/01/12 14:30:26;;;;;;;18.35;11.52;;;3.60;99.90;;;;;;4917974;29;20213;-87
2022/01/12 14:33:10;;;;;;;16.08;9.05;;;3.90;99.90;;;;;;4971196;28;20236;-86
2022/01/12 14:39:29;;;;;;;15.95;11.30;;;4.20;99.90;;;;;;4978579;28;20212;-86
2022/01/12 14:46:13;;;;;;;17.63;12.27;;;4.00;99.90;;;;;;5025688;23;20247;-86
2022/01/12 14:58:49;;;;;;;18.15;12.80;;;3.80;99.90;;;;;;4979091;28;20221;-88
2022/01/12 15:04:38;;;;;;;20.15;11.10;;;3.80;99.90;;;;;;4863328;29;20227;-84
2022/01/12 15:07:53;;;;;;;17.60;10.70;;;3.90;99.90;;;;;;4941228;29;20218;-84
2022/01/12 15:13:54;;;;;;;20.20;13.10;;;3.70;99.90;;;;;;4942138;29;20218;-86
2022/01/12 15:16:36;;;;;;;18.02;12.40;;;3.70;99.90;;;;;;4942782;29;20225;-87
2022/01/12 15:19:03;;;;;;;16.00;11.60;;;3.70;99.90;;;;;;4942678;29;20586;-86
2022/01/12 15:29:23;;;;;;;21.17;13.57;;;3.80;99.90;;;;;;4832368;29;20207;-88
2022/01/12 15:31:57;;;;;;;18.48;9.77;;;3.50;99.90;;;;;;4830645;29;20724;-87
2022/01/12 15:34:38;;;;;;;17.80;13.10;;;4.00;99.90;;;;;;4959872;23;20242;-85
2022/01/12 15:42:00;;;;;;;;;;;;;;;;;;;;;
2022/01/12 15:47:51;;;;;;;17.67;12.77;;;3.40;99.90;;;;;;4921581;29;20219;-87
2022/01/12 15:51:12;;;;;;;17.60;11.82;;;3.40;99.90;;;;;;4817023;29;20279;-88
2022/01/12 15:53:42;;;;;;;19.33;12.32;;;3.40;99.90;;;;;;4818547;29;20240;-86
2022/01/12 15:56:43;;;;;;;20.23;12.45;;;3.50;99.90;;;;;;4938685;28;20212;-87
2022/01/12 16:08:44;;;;;;;17.73;12.98;;;3.40;99.90;;;;;;4919095;29;20239;-87
2022/01/12 16:11:17;;;;;;;20.30;12.80;;;3.30;99.90;;;;;;4981297;28;20646;-85
2022/01/12 16:13:44;;;;;;;25.67;13.77;;;3.30;99.90;;;;;;4979629;28;20225;-85
2022/01/12 16:19:49;;;;;;;21.88;13.77;;;2.90;99.90;;;;;;4924345;28;20214;-88
2022/01/12 16:22:39;;;;;;;19.83;13.35;;;3.20;99.90;;;;;;4985842;28;20289;-88
2022/01/12 16:25:53;;;;;;;26.58;14.40;;;2.80;99.90;;;;;;4973860;28;20312;-87
2022/01/12 16:32:20;;;;;;;22.00;13.40;;;3.10;99.90;;;;;;4989060;28;20208;-87
2022/01/12 16:35:05;;;;;;;18.70;12.88;;;3.20;99.90;;;;;;4992256;28;20277;-88
2022/01/12 16:37:50;;;;;;;20.77;13.18;;;3.20;99.90;;;;;;4986676;28;20591;-89
2022/01/12 16:45:44;;;;;;;20.20;14.20;;;3.10;99.90;;;;;;4980501;28;20228;-87
2022/01/12 16:48:24;;;;;;;20.15;14.15;;;3.00;99.90;;;;;;4983636;28;20271;-87
2022/01/12 16:51:01;;;;;;;22.27;14.20;;;2.90;99.90;;;;;;4988698;28;20619;-87